createdAt,value
2016-10-10T00:00:05.733Z,99.99
2016-10-10T00:01:05.789Z,99.99
2016-10-10T00:02:05.955Z,99.99
2016-10-10T00:03:06.184Z,99.99
2016-10-10T00:04:06.155Z,99.99
2016-10-10T00:05:06.066Z,99.99
2016-10-10T00:06:06.200Z,99.99
2016-10-10T00:07:05.980Z,99.99
2016-10-10T00:08:06.547Z,99.99
2016-10-10T00:09:06.702Z,99.99
2016-10-10T00:10:06.938Z,99.99
2016-10-10T00:11:06.279Z,99.99
2016-10-10T00:12:05.869Z,99.99
2016-10-10T00:13:06.656Z,99.99
2016-10-10T00:14:06.311Z,99.99
2016-10-10T00:15:06.043Z,99.99
2016-10-10T00:16:06.503Z,99.99
2016-10-10T00:17:06.501Z,99.99
2016-10-10T00:18:06.321Z,99.99
2016-10-10T00:19:06.380Z,99.99
2016-10-10T00:20:06.596Z,99.99
2016-10-10T00:21:06.336Z,99.99
2016-10-10T00:22:06.493Z,99.99
2016-10-10T00:23:06.301Z,99.99
2016-10-10T00:24:06.676Z,99.99
2016-10-10T00:25:06.487Z,99.99
2016-10-10T00:26:06.763Z,99.99
2016-10-10T00:27:06.590Z,99.99
2016-10-10T00:28:06.661Z,99.99
2016-10-10T00:29:06.564Z,99.99
2016-10-10T00:30:06.552Z,99.99
2016-10-10T00:31:07.245Z,99.99
2016-10-10T00:32:06.414Z,99.99
2016-10-10T00:33:06.415Z,99.99
2016-10-10T00:34:06.316Z,99.99
2016-10-10T00:35:06.581Z,99.99
2016-10-10T00:36:06.432Z,99.99
2016-10-10T00:37:06.371Z,99.99
2016-10-10T00:38:06.566Z,99.99
2016-10-10T00:39:06.475Z,99.99
2016-10-10T00:40:06.441Z,99.99
2016-10-10T00:41:06.751Z,99.99
2016-10-10T00:42:06.554Z,99.99
2016-10-10T00:43:06.750Z,99.99
2016-10-10T00:44:06.528Z,99.99
2016-10-10T00:45:06.897Z,99.99
2016-10-10T00:46:06.656Z,99.99
2016-10-10T00:47:07.611Z,99.99
2016-10-10T00:48:07.343Z,99.99
2016-10-10T00:49:06.911Z,99.99
2016-10-10T00:50:07.410Z,99.99
2016-10-10T00:51:06.662Z,99.99
2016-10-10T00:52:07.027Z,99.99
2016-10-10T00:53:07.352Z,99.99
2016-10-10T00:54:07.015Z,99.99
2016-10-10T00:55:06.956Z,99.99
2016-10-10T00:56:06.955Z,99.99
2016-10-10T00:57:07.145Z,99.99
2016-10-10T00:58:07.196Z,99.99
2016-10-10T00:59:06.975Z,99.99
2016-10-10T01:00:07.149Z,99.99
2016-10-10T01:01:06.921Z,99.99
2016-10-10T01:02:07.464Z,99.99
2016-10-10T01:03:06.988Z,99.99
2016-10-10T01:04:07.045Z,99.99
2016-10-10T01:05:06.905Z,99.99
2016-10-10T01:06:06.805Z,99.99
2016-10-10T01:07:07.203Z,99.99
2016-10-10T01:08:06.930Z,99.99
2016-10-10T01:09:07.195Z,99.99
2016-10-10T01:10:07.704Z,99.99
2016-10-10T01:11:07.089Z,99.99
2016-10-10T01:12:07.148Z,99.99
2016-10-10T01:13:07.106Z,99.99
2016-10-10T01:14:07.343Z,99.99
2016-10-10T01:15:07.320Z,99.99
2016-10-10T01:16:07.157Z,99.99
2016-10-10T01:17:07.499Z,99.99
2016-10-10T01:18:07.868Z,99.99
2016-10-10T01:19:07.160Z,99.99
2016-10-10T01:20:07.151Z,99.99
2016-10-10T01:21:07.324Z,99.99
2016-10-10T01:22:07.266Z,99.99
2016-10-10T01:23:07.823Z,99.99
2016-10-10T01:24:07.627Z,99.99
2016-10-10T01:25:07.406Z,99.99
2016-10-10T01:26:07.270Z,99.99
2016-10-10T01:27:07.532Z,99.99
2016-10-10T01:28:08.193Z,99.99
2016-10-10T01:29:07.322Z,99.99
2016-10-10T01:30:07.230Z,99.99
2016-10-10T01:31:07.394Z,99.99
2016-10-10T01:32:07.604Z,99.99
2016-10-10T01:33:07.566Z,99.99
2016-10-10T01:34:07.539Z,99.99
2016-10-10T01:35:07.959Z,99.99
2016-10-10T01:36:08.067Z,99.99
2016-10-10T01:37:07.722Z,99.99
2016-10-10T01:38:07.715Z,99.99
2016-10-10T01:39:07.449Z,99.99
2016-10-10T01:40:07.528Z,99.99
2016-10-10T01:41:07.517Z,99.99
2016-10-10T01:42:07.818Z,99.99
2016-10-10T01:43:08.205Z,99.99
2016-10-10T01:44:07.821Z,99.99
2016-10-10T01:45:08.056Z,99.99
2016-10-10T01:46:07.874Z,99.99
2016-10-10T01:47:07.875Z,99.99
2016-10-10T01:48:08.035Z,99.99
2016-10-10T01:49:07.957Z,99.99
2016-10-10T01:50:07.842Z,99.99
2016-10-10T01:51:07.803Z,99.99
2016-10-10T01:52:08.118Z,99.99
2016-10-10T01:53:07.787Z,99.99
2016-10-10T01:54:07.898Z,99.99
2016-10-10T01:55:08.321Z,99.99
2016-10-10T01:56:07.864Z,99.99
2016-10-10T01:57:08.100Z,99.99
2016-10-10T01:58:08.366Z,99.99
2016-10-10T01:59:08.080Z,99.99
2016-10-10T02:00:07.943Z,99.99
2016-10-10T02:01:08.002Z,99.99
2016-10-10T02:02:07.823Z,99.99
2016-10-10T02:03:07.873Z,99.99
2016-10-10T02:04:08.627Z,99.99
2016-10-10T02:05:08.546Z,99.99
2016-10-10T02:06:08.374Z,99.99
2016-10-10T02:07:08.777Z,99.99
2016-10-10T02:08:07.977Z,99.99
2016-10-10T02:09:08.217Z,99.99
2016-10-10T02:10:08.583Z,99.99
2016-10-10T02:11:08.561Z,99.99
2016-10-10T02:12:08.446Z,99.99
2016-10-10T02:13:08.556Z,99.99
2016-10-10T02:14:08.594Z,99.99
2016-10-10T02:15:08.252Z,99.99
2016-10-10T02:16:08.173Z,99.99
2016-10-10T02:17:08.345Z,99.99
2016-10-10T02:18:08.464Z,99.99
2016-10-10T02:19:08.562Z,99.99
2016-10-10T02:20:08.330Z,99.99
2016-10-10T02:21:08.558Z,99.99
2016-10-10T02:22:08.246Z,99.99
2016-10-10T02:23:08.240Z,99.99
2016-10-10T02:24:08.295Z,99.99
2016-10-10T02:25:08.631Z,99.99
2016-10-10T02:26:08.560Z,99.99
2016-10-10T02:27:08.232Z,99.99
2016-10-10T02:28:08.410Z,99.99
2016-10-10T02:29:08.579Z,99.99
2016-10-10T02:30:08.460Z,99.99
2016-10-10T02:31:08.480Z,99.99
2016-10-10T02:32:08.476Z,99.99
2016-10-10T02:33:08.808Z,99.99
2016-10-10T02:34:08.551Z,99.99
2016-10-10T02:35:08.600Z,99.99
2016-10-10T02:36:08.936Z,99.99
2016-10-10T02:37:08.459Z,99.99
2016-10-10T02:38:09.218Z,99.99
2016-10-10T02:39:08.995Z,99.99
2016-10-10T02:40:08.896Z,99.99
2016-10-10T02:41:09.058Z,99.99
2016-10-10T02:42:08.914Z,99.99
2016-10-10T02:43:09.071Z,99.99
2016-10-10T02:44:08.612Z,99.99
2016-10-10T02:45:09.774Z,99.99
2016-10-10T02:46:08.786Z,99.99
2016-10-10T02:47:08.680Z,99.99
2016-10-10T02:48:08.666Z,99.99
2016-10-10T02:49:09.137Z,99.99
2016-10-10T02:50:08.733Z,99.99
2016-10-10T02:51:08.798Z,99.99
2016-10-10T02:52:08.853Z,99.99
2016-10-10T02:53:08.622Z,99.99
2016-10-10T02:54:08.694Z,99.99
2016-10-10T02:55:09.133Z,99.99
2016-10-10T02:56:08.837Z,99.99
2016-10-10T02:57:09.008Z,99.99
2016-10-10T02:58:08.881Z,99.99
2016-10-10T02:59:08.873Z,99.99
2016-10-10T03:00:09.836Z,99.99
2016-10-10T03:01:08.861Z,99.99
2016-10-10T03:02:09.245Z,99.99
2016-10-10T03:03:09.560Z,99.99
2016-10-10T03:04:09.026Z,99.99
2016-10-10T03:05:09.005Z,99.99
2016-10-10T03:06:08.785Z,99.99
2016-10-10T03:07:09.219Z,99.99
2016-10-10T03:08:09.099Z,99.99
2016-10-10T03:09:09.494Z,99.99
2016-10-10T03:10:09.710Z,99.99
2016-10-10T03:11:09.515Z,99.99
2016-10-10T03:12:09.579Z,99.99
2016-10-10T03:13:09.764Z,99.99
2016-10-10T03:14:09.275Z,99.99
2016-10-10T03:15:09.549Z,99.99
2016-10-10T03:16:09.196Z,99.99
2016-10-10T03:17:09.853Z,99.99
2016-10-10T03:18:09.145Z,99.99
2016-10-10T03:19:09.392Z,99.99
2016-10-10T03:20:09.154Z,99.99
2016-10-10T03:21:09.037Z,99.99
2016-10-10T03:22:09.226Z,99.99
2016-10-10T03:23:09.003Z,99.99
2016-10-10T03:24:09.246Z,99.99
2016-10-10T03:25:09.427Z,99.99
2016-10-10T03:26:09.606Z,99.99
2016-10-10T03:27:09.190Z,99.99
2016-10-10T03:28:09.913Z,99.99
2016-10-10T03:29:09.949Z,99.99
2016-10-10T03:30:09.653Z,99.99
2016-10-10T03:31:10.536Z,99.99
2016-10-10T03:32:09.967Z,99.99
2016-10-10T03:33:09.326Z,99.99
2016-10-10T03:34:09.582Z,99.99
2016-10-10T03:35:09.813Z,99.99
2016-10-10T03:36:09.605Z,99.99
2016-10-10T03:37:09.649Z,99.99
2016-10-10T03:38:10.974Z,99.99
2016-10-10T03:39:09.641Z,99.99
2016-10-10T03:40:10.269Z,99.99
2016-10-10T03:41:09.994Z,99.99
2016-10-10T03:42:09.711Z,99.99
2016-10-10T03:43:09.978Z,99.99
2016-10-10T03:44:10.401Z,99.99
2016-10-10T03:45:10.118Z,99.99
2016-10-10T03:46:09.928Z,99.99
2016-10-10T03:47:09.781Z,99.99
2016-10-10T03:48:09.967Z,99.99
2016-10-10T03:49:09.727Z,99.99
2016-10-10T03:50:10.498Z,99.99
2016-10-10T03:51:09.909Z,99.99
2016-10-10T03:52:10.144Z,99.99
2016-10-10T03:53:10.501Z,99.99
2016-10-10T03:54:09.893Z,99.99
2016-10-10T03:55:09.941Z,99.99
2016-10-10T03:56:09.635Z,99.99
2016-10-10T03:57:09.760Z,99.99
2016-10-10T03:58:10.031Z,99.99
2016-10-10T03:59:09.962Z,99.99
2016-10-10T04:00:10.191Z,99.99
2016-10-10T04:01:10.396Z,99.99
2016-10-10T04:02:10.272Z,99.99
2016-10-10T04:03:10.320Z,99.99
2016-10-10T04:04:10.208Z,99.99
2016-10-10T04:05:09.815Z,99.99
2016-10-10T04:06:10.356Z,99.99
2016-10-10T04:07:09.943Z,99.99
2016-10-10T04:08:10.076Z,99.99
2016-10-10T04:09:10.152Z,99.99
2016-10-10T04:10:10.350Z,99.99
2016-10-10T04:11:10.092Z,99.99
2016-10-10T04:12:11.275Z,99.99
2016-10-10T04:13:10.114Z,99.99
2016-10-10T04:14:10.272Z,99.99
2016-10-10T04:15:10.281Z,99.99
2016-10-10T04:16:10.474Z,99.99
2016-10-10T04:17:10.734Z,99.99
2016-10-10T04:18:10.274Z,99.99
2016-10-10T04:19:10.776Z,99.99
2016-10-10T04:20:10.568Z,99.99
2016-10-10T04:21:10.247Z,99.99
2016-10-10T04:22:10.696Z,99.99
2016-10-10T04:23:10.831Z,99.99
2016-10-10T04:24:10.548Z,99.99
2016-10-10T04:25:10.316Z,99.99
2016-10-10T04:26:10.262Z,99.99
2016-10-10T04:27:10.162Z,99.99
2016-10-10T04:28:10.459Z,99.99
2016-10-10T04:29:11.065Z,99.99
2016-10-10T04:30:10.662Z,99.99
2016-10-10T04:31:10.371Z,99.99
2016-10-10T04:32:10.468Z,99.99
2016-10-10T04:33:10.894Z,99.99
2016-10-10T04:34:10.698Z,99.99
2016-10-10T04:35:10.685Z,99.99
2016-10-10T04:36:14.140Z,99.99
2016-10-10T04:37:10.778Z,99.99
2016-10-10T04:38:10.426Z,99.99
2016-10-10T04:39:11.383Z,99.99
2016-10-10T04:40:11.702Z,99.99
2016-10-10T04:41:11.333Z,99.99
2016-10-10T04:42:10.648Z,99.99
2016-10-10T04:43:10.608Z,99.99
2016-10-10T04:44:10.926Z,99.99
2016-10-10T04:45:10.716Z,99.99
2016-10-10T04:46:10.934Z,99.99
2016-10-10T04:47:11.695Z,99.99
2016-10-10T04:48:10.827Z,99.99
2016-10-10T04:49:10.964Z,99.99
2016-10-10T04:50:11.247Z,99.99
2016-10-10T04:51:11.278Z,99.99
2016-10-10T04:52:10.642Z,99.99
2016-10-10T04:53:11.173Z,99.99
2016-10-10T04:54:10.641Z,99.99
2016-10-10T04:55:10.982Z,99.99
2016-10-10T04:56:11.183Z,99.99
2016-10-10T04:57:10.832Z,99.99
2016-10-10T04:58:10.929Z,99.99
2016-10-10T04:59:11.298Z,99.99
2016-10-10T05:00:11.691Z,99.99
2016-10-10T05:01:10.815Z,99.99
2016-10-10T05:02:11.945Z,99.99
2016-10-10T05:03:11.300Z,99.99
2016-10-10T05:04:11.057Z,99.99
2016-10-10T05:05:10.839Z,99.99
2016-10-10T05:06:11.499Z,99.99
2016-10-10T05:07:11.524Z,99.99
2016-10-10T05:08:11.303Z,99.99
2016-10-10T05:09:11.932Z,99.99
2016-10-10T05:10:11.207Z,99.99
2016-10-10T05:11:11.085Z,99.99
2016-10-10T05:12:11.801Z,99.99
2016-10-10T05:13:11.681Z,99.99
2016-10-10T05:14:10.979Z,99.99
2016-10-10T05:15:11.657Z,99.99
2016-10-10T05:16:11.424Z,99.99
2016-10-10T05:17:10.984Z,99.99
2016-10-10T05:18:11.631Z,99.99
2016-10-10T05:19:10.969Z,99.99
2016-10-10T05:20:11.311Z,99.99
2016-10-10T05:21:11.416Z,99.99
2016-10-10T05:22:11.737Z,99.99
2016-10-10T05:23:11.412Z,99.99
2016-10-10T05:24:11.725Z,99.99
2016-10-10T05:25:11.407Z,99.99
2016-10-10T05:26:11.641Z,99.99
2016-10-10T05:27:12.057Z,99.99
2016-10-10T05:28:11.699Z,99.99
2016-10-10T05:29:11.420Z,99.99
2016-10-10T05:30:11.376Z,99.99
2016-10-10T05:31:11.473Z,99.99
2016-10-10T05:32:11.476Z,99.99
2016-10-10T05:33:11.452Z,99.99
2016-10-10T05:34:11.862Z,99.99
2016-10-10T05:35:11.341Z,99.99
2016-10-10T05:36:11.576Z,99.99
2016-10-10T05:37:11.751Z,99.99
2016-10-10T05:38:11.741Z,99.99
2016-10-10T05:39:11.774Z,99.99
2016-10-10T05:40:11.680Z,99.99
2016-10-10T05:41:11.711Z,99.99
2016-10-10T05:42:11.238Z,99.99
2016-10-10T05:44:11.198Z,99.99
2016-10-10T05:46:11.336Z,99.99
2016-10-10T05:48:11.597Z,99.99
2016-10-10T05:50:13.805Z,99.99
2016-10-10T05:51:11.371Z,99.99
2016-10-10T05:52:11.707Z,99.99
2016-10-10T05:53:12.637Z,99.99
2016-10-10T05:54:12.727Z,99.99
2016-10-10T05:55:12.321Z,99.99
2016-10-10T05:56:12.032Z,99.99
2016-10-10T05:57:12.264Z,99.99
2016-10-10T05:58:12.289Z,99.99
2016-10-10T05:59:12.311Z,99.99
2016-10-10T06:00:11.982Z,99.99
2016-10-10T06:01:12.550Z,99.99
2016-10-10T06:02:12.548Z,99.99
2016-10-10T06:03:12.141Z,99.99
2016-10-10T06:04:12.045Z,99.99
2016-10-10T06:05:11.839Z,99.99
2016-10-10T06:06:11.897Z,99.99
2016-10-10T06:07:12.013Z,99.99
2016-10-10T06:08:12.672Z,99.99
2016-10-10T06:09:12.087Z,99.99
2016-10-10T06:10:11.866Z,99.99
2016-10-10T06:11:12.159Z,99.99
2016-10-10T06:12:12.381Z,99.99
2016-10-10T06:13:12.028Z,99.99
2016-10-10T06:14:12.010Z,99.99
2016-10-10T06:15:12.804Z,99.99
2016-10-10T06:16:12.475Z,99.99
2016-10-10T06:17:12.293Z,99.99
2016-10-10T06:18:11.996Z,99.99
2016-10-10T06:19:12.182Z,99.99
2016-10-10T06:20:12.295Z,99.99
2016-10-10T06:21:12.457Z,99.99
2016-10-10T06:22:12.407Z,99.99
2016-10-10T06:23:12.827Z,99.99
2016-10-10T06:24:12.116Z,99.99
2016-10-10T06:25:12.819Z,99.99
2016-10-10T06:26:12.555Z,99.99
2016-10-10T06:27:12.479Z,99.99
2016-10-10T06:28:12.218Z,99.99
2016-10-10T06:29:12.247Z,99.99
2016-10-10T06:30:12.222Z,99.99
2016-10-10T06:31:12.480Z,99.99
2016-10-10T06:32:12.740Z,99.99
2016-10-10T06:33:12.824Z,99.99
2016-10-10T06:34:12.535Z,99.99
2016-10-10T06:35:12.312Z,99.99
2016-10-10T06:36:12.339Z,99.99
2016-10-10T06:37:12.595Z,99.99
2016-10-10T06:38:13.047Z,99.99
2016-10-10T06:39:13.111Z,99.99
2016-10-10T06:40:12.557Z,99.99
2016-10-10T06:41:12.252Z,99.99
2016-10-10T06:42:13.001Z,99.99
2016-10-10T06:43:13.502Z,99.99
2016-10-10T06:44:12.616Z,99.99
2016-10-10T06:45:12.817Z,99.99
2016-10-10T06:46:13.206Z,99.99
2016-10-10T06:47:13.173Z,99.99
2016-10-10T06:48:13.037Z,99.99
2016-10-10T06:49:12.801Z,99.99
2016-10-10T06:50:12.763Z,99.99
2016-10-10T06:51:12.568Z,99.99
2016-10-10T06:52:12.819Z,99.99
2016-10-10T06:53:12.812Z,99.99
2016-10-10T06:54:13.017Z,99.99
2016-10-10T06:55:13.516Z,99.99
2016-10-10T06:56:12.980Z,99.99
2016-10-10T06:57:12.956Z,99.99
2016-10-10T06:58:12.773Z,99.99
2016-10-10T06:59:12.930Z,99.99
2016-10-10T07:00:13.079Z,99.99
2016-10-10T07:01:12.887Z,99.99
2016-10-10T07:02:12.749Z,99.99
2016-10-10T07:03:13.268Z,99.54
2016-10-10T07:04:13.035Z,99.99
2016-10-10T07:05:12.815Z,99.99
2016-10-10T07:06:13.121Z,99.99
2016-10-10T07:07:12.832Z,99.99
2016-10-10T07:08:13.121Z,99.99
2016-10-10T07:09:12.996Z,99.54
2016-10-10T07:10:13.159Z,99.73
2016-10-10T07:11:13.640Z,99.83
2016-10-10T07:12:13.009Z,99.73
2016-10-10T07:13:12.876Z,99.44
2016-10-10T07:14:13.198Z,99.92
2016-10-10T07:15:13.552Z,99.92
2016-10-10T07:16:13.334Z,99.92
2016-10-10T07:17:13.357Z,99.64
2016-10-10T07:18:13.267Z,99.64
2016-10-10T07:19:13.127Z,99.54
2016-10-10T07:20:13.268Z,99.64
2016-10-10T07:21:13.400Z,99.44
2016-10-10T07:22:13.515Z,99.64
2016-10-10T07:23:13.450Z,99.83
2016-10-10T07:24:13.684Z,99.92
2016-10-10T07:25:13.423Z,99.73
2016-10-10T07:26:13.329Z,99.73
2016-10-10T07:27:13.473Z,99.99
2016-10-10T07:28:13.271Z,99.73
2016-10-10T07:29:13.586Z,99.83
2016-10-10T07:30:13.461Z,99.92
2016-10-10T07:31:13.536Z,99.59
2016-10-10T07:32:13.618Z,99.69
2016-10-10T07:33:13.167Z,99.99
2016-10-10T07:34:13.322Z,99.92
2016-10-10T07:35:13.544Z,99.92
2016-10-10T07:36:13.893Z,99.44
2016-10-10T07:37:13.469Z,99.35
2016-10-10T07:38:14.029Z,99.78
2016-10-10T07:39:13.580Z,99.59
2016-10-10T07:40:13.446Z,99.59
2016-10-10T07:41:13.843Z,99.5
2016-10-10T07:42:13.980Z,99.92
2016-10-10T07:43:14.436Z,99.3
2016-10-10T07:44:13.621Z,99.11
2016-10-10T07:45:13.973Z,99.3
2016-10-10T07:46:14.052Z,99.88
2016-10-10T07:47:13.574Z,99.69
2016-10-10T07:48:13.601Z,98.93
2016-10-10T07:49:13.474Z,99.21
2016-10-10T07:50:13.984Z,99.02
2016-10-10T07:51:13.935Z,99.3
2016-10-10T07:52:13.793Z,99.02
2016-10-10T07:53:14.028Z,99.3
2016-10-10T07:54:13.971Z,99.3
2016-10-10T07:55:14.176Z,98.93
2016-10-10T07:56:13.862Z,99.59
2016-10-10T07:57:14.197Z,98.83
2016-10-10T07:58:14.688Z,98.83
2016-10-10T07:59:14.169Z,98.74
2016-10-10T08:00:15.067Z,98.83
2016-10-10T08:01:13.827Z,98.55
2016-10-10T08:02:14.655Z,98.55
2016-10-10T08:03:13.889Z,98.17
2016-10-10T08:04:14.035Z,98.26
2016-10-10T08:05:14.414Z,98.55
2016-10-10T08:06:14.197Z,98.26
2016-10-10T08:07:13.768Z,98.55
2016-10-10T08:08:14.246Z,97.6
2016-10-10T08:09:14.103Z,97.69
2016-10-10T08:10:13.944Z,97.78
2016-10-10T08:11:14.446Z,98.07
2016-10-10T08:12:13.946Z,97.5
2016-10-10T08:13:14.842Z,97.78
2016-10-10T08:14:14.266Z,97.6
2016-10-10T08:15:14.326Z,97.12
2016-10-10T08:16:14.027Z,96.17
2016-10-10T08:17:14.888Z,97.03
2016-10-10T08:18:14.262Z,96.65
2016-10-10T08:19:14.950Z,97.88
2016-10-10T08:20:14.095Z,97.69
2016-10-10T08:21:14.122Z,97.41
2016-10-10T08:22:14.764Z,97.12
2016-10-10T08:23:14.533Z,97.08
2016-10-10T08:24:14.365Z,97.17
2016-10-10T08:25:14.174Z,96.89
2016-10-10T08:26:14.776Z,97.83
2016-10-10T08:27:14.529Z,96.31
2016-10-10T08:28:14.165Z,96.5
2016-10-10T08:29:14.520Z,96.31
2016-10-10T08:30:14.793Z,96.79
2016-10-10T08:31:14.313Z,96.69
2016-10-10T08:32:14.378Z,96.22
2016-10-10T08:33:14.260Z,96.12
2016-10-10T08:34:14.893Z,96.31
2016-10-10T08:35:14.455Z,96.6
2016-10-10T08:36:14.578Z,95.08
2016-10-10T08:37:14.833Z,94.89
2016-10-10T08:38:14.309Z,94.6
2016-10-10T08:39:14.783Z,94.79
2016-10-10T08:40:14.569Z,94.51
2016-10-10T08:41:14.629Z,94.51
2016-10-10T08:42:14.979Z,95.36
2016-10-10T08:43:14.980Z,94.79
2016-10-10T08:44:15.215Z,95.27
2016-10-10T08:45:14.708Z,95.27
2016-10-10T08:46:15.542Z,95.65
2016-10-10T08:47:15.018Z,95.27
2016-10-10T08:48:15.373Z,95.51
2016-10-10T08:49:15.542Z,95.22
2016-10-10T08:50:14.762Z,94.74
2016-10-10T08:51:15.109Z,94.93
2016-10-10T08:52:15.207Z,94.46
2016-10-10T08:53:14.831Z,94.74
2016-10-10T08:54:14.782Z,94.65
2016-10-10T08:55:14.693Z,95.51
2016-10-10T08:56:15.358Z,94.74
2016-10-10T08:57:15.189Z,94.56
2016-10-10T08:58:15.335Z,93.6
2016-10-10T08:59:14.868Z,93.04
2016-10-10T09:00:14.987Z,93.6
2016-10-10T09:01:14.823Z,93.04
2016-10-10T09:02:15.591Z,93.13
2016-10-10T09:03:14.953Z,93.79
2016-10-10T09:04:15.066Z,93.13
2016-10-10T09:05:15.155Z,93.79
2016-10-10T09:06:15.389Z,94.37
2016-10-10T09:07:15.564Z,93.32
2016-10-10T09:08:14.980Z,92.65
2016-10-10T09:09:15.102Z,92.27
2016-10-10T09:10:15.308Z,92.27
2016-10-10T09:11:15.263Z,91.51
2016-10-10T09:12:15.878Z,92.08
2016-10-10T09:13:15.012Z,92.08
2016-10-10T09:14:15.383Z,91.7
2016-10-10T09:15:15.186Z,92.46
2016-10-10T09:16:15.427Z,92.46
2016-10-10T09:17:16.074Z,92.27
2016-10-10T09:18:15.518Z,92.75
2016-10-10T09:19:15.360Z,92.36
2016-10-10T09:20:15.453Z,91.89
2016-10-10T09:21:15.249Z,92.27
2016-10-10T09:22:15.277Z,91.89
2016-10-10T09:23:15.505Z,92.56
2016-10-10T09:24:15.857Z,92.27
2016-10-10T09:25:16.127Z,93.18
2016-10-10T09:26:15.804Z,91.65
2016-10-10T09:27:15.367Z,91.94
2016-10-10T09:28:15.558Z,91.08
2016-10-10T09:29:15.657Z,91.46
2016-10-10T09:30:16.816Z,91.37
2016-10-10T09:31:15.744Z,92.03
2016-10-10T09:32:15.415Z,91.94
2016-10-10T09:33:15.297Z,91.56
2016-10-10T09:34:15.901Z,92.03
2016-10-10T09:35:15.824Z,92.6
2016-10-10T09:36:15.629Z,91.94
2016-10-10T09:37:15.720Z,92.51
2016-10-10T09:38:16.024Z,91.94
2016-10-10T09:39:16.043Z,91.94
2016-10-10T09:40:15.759Z,91.65
2016-10-10T09:41:16.145Z,92.13
2016-10-10T09:42:15.987Z,91.84
2016-10-10T09:43:15.796Z,92.03
2016-10-10T09:44:16.185Z,91.27
2016-10-10T09:45:15.776Z,91.94
2016-10-10T09:46:15.659Z,92.41
2016-10-10T09:47:16.232Z,92.13
2016-10-10T09:48:16.855Z,91.27
2016-10-10T09:49:17.037Z,91.89
2016-10-10T09:50:15.828Z,91.6
2016-10-10T09:51:16.304Z,90.36
2016-10-10T09:52:16.137Z,90.36
2016-10-10T09:53:15.818Z,90.46
2016-10-10T09:54:15.883Z,90.36
2016-10-10T09:55:16.255Z,90.42
2016-10-10T09:56:15.883Z,90.36
2016-10-10T09:57:16.048Z,90.56
2016-10-10T09:58:16.960Z,90.36
2016-10-10T09:59:16.207Z,90.46
2016-10-10T10:00:16.274Z,89.22
2016-10-10T10:01:16.207Z,89.7
2016-10-10T10:02:16.968Z,90.27
2016-10-10T10:03:16.081Z,90.17
2016-10-10T10:04:16.002Z,89.89
2016-10-10T10:05:16.105Z,89.22
2016-10-10T10:06:16.310Z,89.7
2016-10-10T10:07:16.131Z,90.46
2016-10-10T10:08:16.029Z,91.41
2016-10-10T10:09:16.452Z,89.41
2016-10-10T10:10:16.047Z,89.41
2016-10-10T10:11:16.502Z,88.93
2016-10-10T10:12:16.901Z,88.65
2016-10-10T10:13:16.151Z,89.51
2016-10-10T10:14:16.167Z,89.32
2016-10-10T10:15:16.231Z,90.36
2016-10-10T10:16:16.415Z,89.61
2016-10-10T10:17:16.439Z,88.56
2016-10-10T10:18:16.170Z,88.37
2016-10-10T10:19:16.542Z,87.89
2016-10-10T10:20:16.557Z,88.27
2016-10-10T10:21:16.713Z,88.65
2016-10-10T10:22:16.592Z,88.08
2016-10-10T10:23:16.745Z,87.41
2016-10-10T10:24:16.882Z,87.27
2016-10-10T10:25:16.447Z,87.41
2016-10-10T10:26:16.504Z,88.22
2016-10-10T10:27:16.798Z,88.31
2016-10-10T10:28:16.657Z,86.22
2016-10-10T10:29:17.465Z,86.12
2016-10-10T10:30:16.857Z,87.98
2016-10-10T10:31:16.666Z,85.6
2016-10-10T10:32:17.070Z,84.55
2016-10-10T10:33:17.394Z,84.03
2016-10-10T10:34:16.874Z,85.08
2016-10-10T10:35:16.775Z,84.88
2016-10-10T10:36:16.620Z,84.79
2016-10-10T10:37:17.093Z,85.93
2016-10-10T10:38:17.265Z,86.07
2016-10-10T10:39:16.866Z,84.83
2016-10-10T10:40:17.480Z,84.74
2016-10-10T10:41:17.041Z,84.03
2016-10-10T10:42:17.651Z,84.36
2016-10-10T10:43:17.260Z,83.69
2016-10-10T10:44:16.724Z,83.59
2016-10-10T10:45:16.813Z,83.88
2016-10-10T10:46:17.129Z,84.3
2016-10-10T10:47:17.575Z,84.4
2016-10-10T10:48:16.872Z,83.35
2016-10-10T10:49:17.483Z,85.35
2016-10-10T10:50:17.161Z,83.44
2016-10-10T10:51:17.262Z,83.25
2016-10-10T10:52:17.223Z,83.92
2016-10-10T10:53:16.992Z,82.3
2016-10-10T10:54:17.037Z,83.48
2016-10-10T10:55:16.974Z,80.15
2016-10-10T10:56:17.524Z,78.52
2016-10-10T10:57:17.307Z,79.67
2016-10-10T10:58:17.189Z,79.57
2016-10-10T10:59:17.299Z,79.48
2016-10-10T11:00:17.880Z,79.19
2016-10-10T11:01:17.124Z,80.33
2016-10-10T11:02:16.912Z,80.49
2016-10-10T11:03:17.160Z,82.59
2016-10-10T11:04:17.474Z,79.82
2016-10-10T11:05:17.612Z,79.63
2016-10-10T11:06:17.263Z,80.58
2016-10-10T11:07:17.416Z,80.68
2016-10-10T11:08:17.385Z,81.06
2016-10-10T11:09:17.534Z,81.58
2016-10-10T11:10:17.188Z,81.2
2016-10-10T11:11:17.404Z,79.86
2016-10-10T11:12:17.632Z,78.33
2016-10-10T11:13:17.990Z,77.38
2016-10-10T11:14:18.517Z,77.47
2016-10-10T11:15:17.902Z,77.8
2016-10-10T11:16:17.633Z,80.57
2016-10-10T11:17:17.625Z,80.38
2016-10-10T11:18:17.635Z,78.56
2016-10-10T11:19:17.713Z,79.75
2016-10-10T11:20:17.360Z,78.03
2016-10-10T11:21:17.729Z,77.55
2016-10-10T11:22:17.886Z,78.13
2016-10-10T11:23:17.578Z,76.35
2016-10-10T11:24:17.903Z,76.45
2016-10-10T11:25:17.882Z,76.79
2016-10-10T11:26:18.451Z,75.74
2016-10-10T11:27:18.291Z,74.82
2016-10-10T11:28:17.710Z,74.53
2016-10-10T11:29:17.784Z,76.64
2016-10-10T11:30:18.067Z,76.25
2016-10-10T11:31:18.500Z,75.3
2016-10-10T11:32:18.242Z,73.58
2016-10-10T11:33:18.039Z,73.52
2016-10-10T11:34:18.098Z,72.43
2016-10-10T11:35:18.030Z,75.96
2016-10-10T11:36:18.412Z,76.21
2016-10-10T11:37:17.892Z,78.03
2016-10-10T11:38:18.422Z,78.51
2016-10-10T11:39:18.098Z,73.77
2016-10-10T11:40:18.072Z,75.1
2016-10-10T11:41:17.772Z,73.58
2016-10-10T11:42:18.047Z,72.94
2016-10-10T11:43:17.884Z,72.75
2016-10-10T11:44:18.435Z,72.47
2016-10-10T11:45:17.831Z,73.14
2016-10-10T11:46:18.274Z,72.08
2016-10-10T11:47:18.193Z,74.09
2016-10-10T11:48:18.613Z,72.72
2016-10-10T11:49:18.610Z,72.58
2016-10-10T11:50:18.627Z,75.1
2016-10-10T11:51:18.848Z,73.19
2016-10-10T11:52:18.340Z,73.86
2016-10-10T11:53:18.133Z,75.43
2016-10-10T11:54:18.248Z,75.14
2016-10-10T11:55:18.558Z,74.09
2016-10-10T11:56:18.531Z,73.55
2016-10-10T11:57:18.537Z,68.01
2016-10-10T11:58:18.986Z,69.57
2016-10-10T11:59:18.265Z,68.58
2016-10-10T12:00:18.539Z,72.66
2016-10-10T12:01:18.396Z,71.99
2016-10-10T12:02:18.482Z,71.99
2016-10-10T12:03:18.632Z,70.94
2016-10-10T12:04:18.677Z,69.25
2016-10-10T12:05:18.836Z,69.41
2016-10-10T12:06:18.429Z,69.5
2016-10-10T12:07:18.551Z,68.29
2016-10-10T12:08:18.787Z,69.98
2016-10-10T12:09:18.849Z,68.49
2016-10-10T12:10:18.723Z,69.06
2016-10-10T12:11:18.717Z,70.56
2016-10-10T12:12:18.947Z,71.89
2016-10-10T12:13:18.912Z,69.79
2016-10-10T12:14:19.413Z,70.56
2016-10-10T12:15:18.909Z,71.03
2016-10-10T12:16:19.367Z,70.56
2016-10-10T12:17:18.705Z,68.93
2016-10-10T12:18:19.353Z,68.23
2016-10-10T12:19:19.040Z,70.77
2016-10-10T12:20:18.838Z,71.86
2016-10-10T12:21:18.736Z,72.43
2016-10-10T12:22:19.730Z,70.07
2016-10-10T12:23:19.610Z,71.61
2016-10-10T12:24:18.824Z,74.05
2016-10-10T12:25:19.223Z,71.57
2016-10-10T12:26:19.209Z,70.42
2016-10-10T12:27:18.928Z,70.42
2016-10-10T12:28:19.253Z,71.57
2016-10-10T12:29:19.268Z,70.42
2016-10-10T12:30:19.182Z,70.42
2016-10-10T12:31:18.873Z,70.9
2016-10-10T12:32:19.123Z,72.01
2016-10-10T12:33:19.184Z,72.81
2016-10-10T12:34:19.252Z,71.09
2016-10-10T12:35:19.687Z,69.47
2016-10-10T12:36:19.239Z,68.51
2016-10-10T12:37:19.554Z,69.21
2016-10-10T12:38:19.134Z,72.37
2016-10-10T12:39:19.308Z,69.73
2016-10-10T12:40:19.494Z,70.01
2016-10-10T12:41:19.876Z,70.5
2016-10-10T12:42:19.323Z,67.91
2016-10-10T12:43:19.848Z,69.57
2016-10-10T12:44:20.366Z,68.74
2016-10-10T12:45:19.268Z,67.31
2016-10-10T12:46:20.071Z,65.58
2016-10-10T12:47:19.157Z,66.16
2016-10-10T12:48:19.427Z,65.39
2016-10-10T12:49:19.395Z,65.62
2016-10-10T12:50:19.334Z,63.8
2016-10-10T12:51:19.838Z,64.92
2016-10-10T12:52:19.960Z,63.67
2016-10-10T12:53:19.908Z,64.92
2016-10-10T12:54:19.297Z,62.55
2016-10-10T12:55:19.348Z,63.83
2016-10-10T12:56:19.647Z,67.05
2016-10-10T12:57:19.749Z,69.06